Austin, Texas
Traffic Map
Current Weather Conditions
Austin, Texas
Clear
Clear
65°
Feels Like: 65°
Wind Chill: 65° Ceiling: Unl
Heat Index: 65° Visibility: mi
Dew Point: 19° Wind: 7mph
Humidity: 17% Direction: ° ()
Pressure: 30.08in Gusts: 20mph
Raw Report DataKATT 221951Z AUTO VRB06G17KT CLR 18/M07 A3008 RMK AO2 SLP180 T01831072
Traffic Incident Summary
Active as of:
Severity:
Category:
InformationThere was an issue retrieving the traffic information for this location. Please try a different location or try again shortly.
Advertisements